Time;durP1;ratioP1;P1;durP2;ratioP2;P2;SDS_P1;SDS_P2;PMS_P1;PMS_P2;Temp;Humidity;BMP_temperature;BMP_pressure;BME280_temperature;BME280_humidity;BME280_pressure;Samples;Min_cycle;Max_cycle;Signal;HPM_P1;HPM_P2
2022/12/08 00:59:18;;;;;;;9.93;7.33;;;;;;;-0.23;82.01;100312.83;1627426;86;21025;-74
2022/12/08 01:01:45;;;;;;;8.40;6.78;;;;;;;-0.20;82.07;100314.00;1657357;85;21543;-73
2022/12/08 01:04:14;;;;;;;10.82;7.25;;;;;;;-0.18;82.07;100317.86;1664400;85;22260;-74
2022/12/08 01:06:41;;;;;;;8.93;6.47;;;;;;;-0.16;82.08;100313.45;1644099;85;21425;-74
2022/12/08 01:09:08;;;;;;;7.95;6.10;;;;;;;-0.15;82.07;100321.19;1667111;85;21505;-74
2022/12/08 01:11:35;;;;;;;8.75;5.05;;;;;;;-0.16;82.05;100313.00;1642109;85;21497;-74
2022/12/08 01:14:02;;;;;;;6.05;4.80;;;;;;;-0.14;82.09;100316.84;1643061;86;20979;-74
2022/12/08 01:16:31;;;;;;;5.45;4.42;;;;;;;-0.17;82.10;100320.40;1643130;85;22537;-74
2022/12/08 01:18:58;;;;;;;6.15;4.72;;;;;;;-0.16;82.14;100321.25;1637212;85;21013;-74
2022/12/08 01:21:24;;;;;;;5.62;4.67;;;;;;;-0.15;82.17;100330.72;1619854;85;21056;-75
2022/12/08 01:23:51;;;;;;;6.62;4.55;;;;;;;-0.13;82.20;100334.95;1635744;86;20980;-74
2022/12/08 01:26:19;;;;;;;6.10;4.53;;;;;;;-0.12;82.22;100337.09;1637277;85;21077;-74
2022/12/08 01:28:46;;;;;;;5.95;4.28;;;;;;;-0.12;82.23;100332.74;1633585;87;21847;-75
2022/12/08 01:31:16;;;;;;;5.47;4.40;;;;;;;-0.12;82.26;100343.13;1649100;85;21061;-72
2022/12/08 01:33:42;;;;;;;7.17;4.80;;;;;;;-0.12;82.28;100334.50;1648356;85;21481;-73
2022/12/08 01:36:27;;;;;;;7.70;4.87;;;;;;;-0.13;82.32;100332.80;1633748;86;21431;-73
2022/12/08 01:38:55;;;;;;;5.42;4.22;;;;;;;-0.13;82.37;100334.95;1643091;87;21141;-74
2022/12/08 01:41:24;;;;;;;6.12;4.60;;;;;;;-0.11;82.40;100336.19;1650398;85;22590;-74
2022/12/08 01:44:11;;;;;;;7.78;4.58;;;;;;;-0.11;82.42;100346.12;1644244;86;21129;-74
2022/12/08 01:46:40;;;;;;;4.78;3.90;;;;;;;-0.10;82.45;100328.34;1648368;84;21083;-75
2022/12/08 01:49:29;;;;;;;6.22;4.58;;;;;;;-0.08;82.48;100339.54;1651972;85;21579;-74
2022/12/08 01:52:28;;;;;;;7.55;4.58;;;;;;;-0.07;82.47;100342.53;1648211;84;21120;-75
2022/12/08 01:55:06;;;;;;;6.70;4.42;;;;;;;-0.07;82.49;100338.63;1601502;89;22020;-74
2022/12/08 01:57:40;;;;;;;7.22;4.60;;;;;;;-0.06;82.55;100340.78;1607114;86;21425;-74
2022/12/08 02:00:14;;;;;;;6.30;4.65;;;;;;;-0.07;82.57;100345.13;1643498;85;21030;-75
2022/12/08 02:02:52;;;;;;;8.08;4.95;;;;;;;-0.06;82.60;100345.52;1636103;85;21462;-75
2022/12/08 02:05:20;;;;;;;6.90;4.80;;;;;;;-0.06;82.63;100344.22;1638970;85;21083;-75
2022/12/08 02:07:47;;;;;;;7.12;5.10;;;;;;;-0.05;82.65;100347.20;1653748;84;21928;-75
2022/12/08 02:10:18;;;;;;;6.47;5.10;;;;;;;-0.03;82.65;100352.34;1647723;85;20959;-75
2022/12/08 02:12:45;;;;;;;6.45;5.08;;;;;;;-0.02;82.65;100357.47;1640221;85;20983;-76
2022/12/08 02:15:11;;;;;;;6.15;4.70;;;;;;;-0.02;82.67;100348.84;1644907;85;21038;-75
2022/12/08 02:18:03;;;;;;;6.53;4.50;;;;;;;-0.01;82.70;100351.83;1649916;85;21110;-75
2022/12/08 02:20:53;;;;;;;7.65;4.80;;;;;;;0.01;82.71;100351.80;1629878;86;21901;-75
2022/12/08 02:23:53;;;;;;;7.60;5.28;;;;;;;0.02;82.75;100351.73;1602817;85;21069;-74
2022/12/08 02:27:00;;;;;;;6.92;5.05;;;;;;;0.03;82.76;100356.02;1639181;85;21070;-74
2022/12/08 02:30:03;;;;;;;7.75;5.60;;;;;;;0.05;82.80;100355.96;1644285;84;21473;-74
2022/12/08 02:32:50;;;;;;;10.85;5.60;;;;;;;0.07;82.81;100355.45;1621006;86;21021;-74
2022/12/08 02:35:56;;;;;;;8.48;5.60;;;;;;;0.06;82.81;100352.00;1627069;86;21953;-73
2022/12/08 02:38:38;;;;;;;8.75;4.97;;;;;;;0.08;82.86;100349.34;1612316;86;21598;-74
2022/12/08 02:41:30;;;;;;;8.23;5.47;;;;;;;0.09;82.86;100362.72;1633075;86;21073;-73
2022/12/08 02:44:19;;;;;;;8.68;6.35;;;;;;;0.09;82.86;100364.02;1641362;86;21034;-74
2022/12/08 02:47:11;;;;;;;7.67;5.50;;;;;;;0.08;82.86;100359.73;1631992;85;21053;-74
2022/12/08 02:49:37;;;;;;;8.23;5.17;;;;;;;0.09;82.91;100361.42;1634842;85;21945;-75
2022/12/08 02:52:15;;;;;;;8.10;5.37;;;;;;;0.10;82.91;100356.66;1639169;85;21036;-73
2022/12/08 02:54:46;;;;;;;9.25;5.80;;;;;;;0.10;82.94;100352.31;1596961;86;20991;-73
2022/12/08 02:57:48;;;;;;;10.35;6.30;;;;;;;0.11;82.95;100351.41;1632851;86;21059;-73
2022/12/08 03:00:17;;;;;;;7.12;5.17;;;;;;;0.15;82.99;100356.02;1634399;86;20974;-74
2022/12/08 03:03:17;;;;;;;7.90;5.85;;;;;;;0.17;82.97;100365.44;1633178;85;21812;-74
2022/12/08 03:06:13;;;;;;;7.67;5.58;;;;;;;0.17;82.95;100361.55;1635605;85;21194;-74
2022/12/08 03:09:01;;;;;;;9.20;6.50;;;;;;;0.20;82.98;100369.70;1624557;85;21121;-73
2022/12/08 03:11:56;;;;;;;10.60;6.85;;;;;;;0.21;82.95;100371.39;1629956;85;21077;-73
2022/12/08 03:14:23;;;;;;;10.28;6.78;;;;;;;0.21;82.97;100368.79;1598819;87;21071;-73
2022/12/08 03:16:53;;;;;;;11.75;7.95;;;;;;;0.22;82.98;100373.92;1628571;85;21922;-73
2022/12/08 03:19:27;;;;;;;14.85;9.70;;;;;;;0.22;82.98;100371.33;1636523;85;21128;-73
2022/12/08 03:22:01;;;;;;;15.95;9.58;;;;;;;0.23;82.97;100367.82;1635148;86;21019;-74
2022/12/08 03:24:24;;;;;;;13.58;8.90;;;;;;;0.24;82.97;100375.16;1647188;84;21077;-74
2022/12/08 03:27:08;;;;;;;14.00;9.18;;;;;;;0.24;82.95;100370.81;1613897;86;21020;-74
2022/12/08 03:29:35;;;;;;;10.00;7.22;;;;;;;0.25;82.96;100371.66;1638021;85;22580;-73
2022/12/08 03:32:36;;;;;;;9.68;6.80;;;;;;;0.25;82.95;100369.06;1642305;85;21155;-74
2022/12/08 03:35:10;;;;;;;13.10;8.75;;;;;;;0.25;82.97;100376.39;1564680;89;21115;-74
2022/12/08 03:37:38;;;;;;;12.82;7.58;;;;;;;0.24;82.97;100373.86;1619800;86;21080;-74
2022/12/08 03:40:07;;;;;;;9.55;6.60;;;;;;;0.25;83.05;100377.70;1628054;87;21033;-73
2022/12/08 03:42:33;;;;;;;8.30;6.45;;;;;;;0.26;83.02;100381.14;1648173;85;21955;-76
2022/12/08 03:45:02;;;;;;;9.40;6.67;;;;;;;0.26;83.03;100380.69;1647055;86;21007;-73
2022/12/08 03:47:29;;;;;;;11.25;7.05;;;;;;;0.26;83.02;100381.98;1644821;85;21042;-74
2022/12/08 03:49:56;;;;;;;9.88;7.15;;;;;;;0.27;83.02;100382.83;1634885;84;21020;-74
2022/12/08 03:52:23;;;;;;;10.08;6.50;;;;;;;0.29;83.04;100382.34;1658717;84;21430;-73
2022/12/08 03:54:49;;;;;;;8.10;5.37;;;;;;;0.27;83.05;100373.73;1653638;85;21849;-73
2022/12/08 03:57:16;;;;;;;6.95;5.20;;;;;;;0.30;83.07;100385.79;1644407;84;21631;-74
2022/12/08 03:59:42;;;;;;;8.25;5.72;;;;;;;0.31;83.10;100376.64;1651223;84;21444;-74
2022/12/08 04:02:09;;;;;;;7.22;5.50;;;;;;;0.33;83.09;100383.07;1623582;86;21033;-73
2022/12/08 04:04:36;;;;;;;10.65;6.12;;;;;;;0.33;83.09;100389.11;1632399;86;21461;-74
2022/12/08 04:07:02;;;;;;;10.10;6.33;;;;;;;0.36;83.09;100379.05;1663321;84;22471;-74
2022/12/08 04:09:30;;;;;;;8.83;6.65;;;;;;;0.36;83.08;100372.09;1623825;85;21097;-74
2022/12/08 04:11:56;;;;;;;8.55;7.00;;;;;;;0.39;83.09;100371.16;1612476;87;21034;-74
2022/12/08 04:14:23;;;;;;;10.55;6.85;;;;;;;0.41;83.11;100372.79;1639184;86;21038;-74
2022/12/08 04:16:49;;;;;;;10.13;7.45;;;;;;;0.43;83.08;100374.87;1643942;85;21055;-74
2022/12/08 04:19:16;;;;;;;10.32;6.85;;;;;;;0.43;83.06;100372.72;1640229;85;21818;-73
2022/12/08 04:21:42;;;;;;;14.33;8.45;;;;;;;0.43;83.04;100368.83;1657897;84;20959;-73
2022/12/08 04:24:09;;;;;;;13.08;9.23;;;;;;;0.42;83.04;100372.33;1648184;85;21030;-73
2022/12/08 04:26:35;;;;;;;11.48;7.97;;;;;;;0.42;83.08;100366.69;1637590;84;21071;-74
2022/12/08 04:29:03;;;;;;;11.65;8.53;;;;;;;0.44;83.05;100368.77;1634791;87;20995;-74
2022/12/08 04:31:30;;;;;;;12.23;9.15;;;;;;;0.45;83.04;100365.71;1637121;85;21961;-74
2022/12/08 04:33:56;;;;;;;13.20;9.73;;;;;;;0.45;83.02;100370.45;1636386;86;21114;-73
2022/12/08 04:36:24;;;;;;;14.38;9.78;;;;;;;0.46;83.03;100373.45;1646806;84;21098;-73
2022/12/08 04:38:50;;;;;;;13.88;9.53;;;;;;;0.48;83.04;100375.56;1644822;84;20987;-75
2022/12/08 04:41:17;;;;;;;12.93;9.38;;;;;;;0.49;83.03;100375.95;1655338;84;21065;-74
2022/12/08 04:43:43;;;;;;;14.30;9.78;;;;;;;0.49;83.03;100381.14;1637049;86;21985;-74
2022/12/08 04:46:10;;;;;;;13.70;9.43;;;;;;;0.50;83.00;100380.23;1642975;85;21525;-73
2022/12/08 04:48:37;;;;;;;13.58;9.13;;;;;;;0.50;83.00;100380.69;1632369;86;21498;-73
2022/12/08 04:51:03;;;;;;;13.62;8.98;;;;;;;0.51;82.98;100383.68;1657195;85;20972;-73
2022/12/08 04:53:30;;;;;;;14.68;9.40;;;;;;;0.52;83.00;100380.17;1634134;84;21040;-73
2022/12/08 04:55:56;;;;;;;12.35;8.55;;;;;;;0.53;82.99;100379.27;1649379;84;21705;-73
2022/12/08 04:58:23;;;;;;;11.78;8.08;;;;;;;0.53;82.96;100384.01;1629169;86;21080;-73
2022/12/08 05:00:49;;;;;;;10.20;7.60;;;;;;;0.53;82.94;100393.56;1644806;86;21024;-73
2022/12/08 05:03:16;;;;;;;12.07;8.23;;;;;;;0.51;82.89;100395.38;1626196;86;21073;-73
2022/12/08 05:05:43;;;;;;;10.23;7.10;;;;;;;0.50;82.89;100394.98;1650992;84;21439;-73
2022/12/08 05:08:10;;;;;;;11.90;7.90;;;;;;;0.51;82.89;100397.52;1621908;87;23067;-74
2022/12/08 07:55:52;;;;;;;6.78;5.37;;;;;;;0.43;82.71;100522.13;1632664;84;21114;-70
2022/12/08 07:58:19;;;;;;;8.58;6.33;;;;;;;0.41;82.67;100525.24;1618970;85;21778;-70
2022/12/08 08:00:45;;;;;;;7.90;5.58;;;;;;;0.41;82.67;100522.19;1622017;88;21066;-72
2022/12/08 08:03:12;;;;;;;9.38;6.10;;;;;;;0.41;82.66;100520.89;1634666;85;21645;-74
2022/12/08 08:05:39;;;;;;;10.98;6.62;;;;;;;0.43;82.64;100528.63;1628042;85;21062;-73
2022/12/08 08:08:05;;;;;;;11.18;7.20;;;;;;;0.43;82.61;100529.47;1625686;87;21496;-73
2022/12/08 08:10:33;;;;;;;13.58;7.12;;;;;;;0.42;82.61;100523.04;1624915;87;22261;-72
2022/12/08 08:12:59;;;;;;;9.13;5.65;;;;;;;0.42;82.58;100526.48;1635795;86;21419;-71
2022/12/08 08:15:26;;;;;;;12.10;6.55;;;;;;;0.39;82.54;100517.51;1644364;84;21552;-71
2022/12/08 08:17:52;;;;;;;13.55;7.37;;;;;;;0.40;82.51;100520.95;1640234;85;21098;-73
2022/12/08 08:20:20;;;;;;;13.58;7.87;;;;;;;0.40;82.54;100528.75;1632687;86;21516;-70
2022/12/08 08:22:48;;;;;;;13.00;7.67;;;;;;;0.44;82.55;100521.23;1632189;87;22004;-71
2022/12/08 08:25:15;;;;;;;29.82;14.83;;;;;;;0.47;82.55;100523.25;1650867;85;21066;-71
2022/12/08 08:27:42;;;;;;;32.20;15.08;;;;;;;0.49;82.50;100520.62;1625188;85;21042;-74
2022/12/08 08:30:10;;;;;;;26.77;13.78;;;;;;;0.49;82.47;100517.58;1645228;86;21044;-74
2022/12/08 08:32:37;;;;;;;21.30;10.88;;;;;;;0.48;82.42;100516.30;1639795;86;21123;-70
2022/12/08 08:35:04;;;;;;;25.35;13.43;;;;;;;0.48;82.42;100518.91;1664285;84;21737;-70
2022/12/08 08:37:31;;;;;;;31.10;14.98;;;;;;;0.47;82.37;100515.91;1650913;85;21059;-70
2022/12/08 08:39:57;;;;;;;50.23;27.50;;;;;;;0.43;82.31;100520.38;1646414;85;21041;-70
2022/12/08 08:42:24;;;;;;;50.05;26.85;;;;;;;0.43;82.32;100518.23;1644988;84;21542;-71
2022/12/08 08:44:50;;;;;;;47.83;24.10;;;;;;;0.43;82.34;100517.78;1613445;87;21110;-71
2022/12/08 08:47:17;;;;;;;47.03;22.40;;;;;;;0.45;82.35;100518.57;1658743;83;21920;-71
2022/12/08 08:49:43;;;;;;;42.65;19.15;;;;;;;0.46;82.33;100523.31;1637892;85;21078;-70
2022/12/08 08:52:10;;;;;;;38.80;17.80;;;;;;;0.44;82.27;100525.13;1599236;84;21090;-71
2022/12/08 08:54:36;;;;;;;34.83;17.30;;;;;;;0.40;82.24;100523.55;1656101;85;21076;-71
2022/12/08 08:57:03;;;;;;;36.38;16.70;;;;;;;0.41;82.26;100528.69;1656262;84;21118;-70
2022/12/08 08:59:30;;;;;;;22.87;10.68;;;;;;;0.42;82.24;100532.13;1654286;85;21901;-71
2022/12/08 09:01:56;;;;;;;20.82;10.90;;;;;;;0.43;82.26;100529.93;1636218;86;21528;-71
2022/12/08 09:04:24;;;;;;;15.05;8.50;;;;;;;0.42;82.25;100533.44;1658789;85;21029;-72
2022/12/08 09:06:51;;;;;;;15.60;8.15;;;;;;;0.43;82.25;100526.03;1641368;86;21058;-71
2022/12/08 09:09:17;;;;;;;27.98;15.13;;;;;;;0.43;82.25;100527.33;1629510;87;21065;-72
2022/12/08 09:11:44;;;;;;;24.30;13.78;;;;;;;0.43;82.20;100523.43;1624567;87;21826;-72
2022/12/08 09:14:14;;;;;;;22.73;12.58;;;;;;;0.41;82.21;100517.00;1641879;85;21464;-72
2022/12/08 09:16:41;;;;;;;26.82;14.87;;;;;;;0.43;82.24;100515.64;1646021;86;21592;-70
2022/12/08 09:19:09;;;;;;;24.15;14.07;;;;;;;0.46;82.26;100516.81;1653987;85;21084;-72
2022/12/08 09:21:35;;;;;;;33.25;16.15;;;;;;;0.46;82.27;100524.61;1632620;86;21504;-73
2022/12/08 09:24:02;;;;;;;39.50;18.73;;;;;;;0.46;82.23;100521.56;1654611;86;22459;-70
2022/12/08 09:26:28;;;;;;;44.00;18.45;;;;;;;0.48;82.28;100519.78;1634132;86;21076;-70
2022/12/08 09:28:55;;;;;;;50.28;20.27;;;;;;;0.51;82.28;100520.97;1629762;86;21022;-69
2022/12/08 09:31:22;;;;;;;43.85;17.98;;;;;;;0.51;82.28;100519.66;1633290;86;21078;-69
2022/12/08 09:33:52;;;;;;;48.30;18.42;;;;;;;0.53;82.27;100520.45;1633600;86;21181;-71
2022/12/08 09:36:19;;;;;;;42.67;17.17;;;;;;;0.55;82.24;100519.09;1635816;85;22372;-71
2022/12/08 09:38:46;;;;;;;32.75;12.63;;;;;;;0.55;82.17;100521.69;1631508;86;20997;-73
2022/12/08 09:41:21;;;;;;;24.05;12.70;;;;;;;0.51;82.09;100518.81;1633200;85;21583;-69
2022/12/08 09:43:59;;;;;;;24.70;12.43;;;;;;;0.45;82.04;100522.47;1632778;86;21173;-72
2022/12/08 09:46:27;;;;;;;25.02;12.80;;;;;;;0.44;82.03;100525.13;1630206;86;21586;-70
2022/12/08 09:48:56;;;;;;;25.57;12.98;;;;;;;0.40;82.00;100527.00;1631896;86;21893;-70
2022/12/08 09:51:26;;;;;;;34.15;17.27;;;;;;;0.37;82.01;100527.08;1626914;85;21607;-71
2022/12/08 09:54:06;;;;;;;24.92;13.22;;;;;;;0.35;82.00;100525.00;1631503;86;21188;-69
2022/12/08 09:56:35;;;;;;;27.95;14.33;;;;;;;0.35;82.02;100525.45;1631322;86;21572;-70
2022/12/08 09:59:07;;;;;;;27.15;14.25;;;;;;;0.35;82.06;100520.25;1647326;86;21368;-70
2022/12/08 10:01:40;;;;;;;21.52;12.33;;;;;;;0.37;82.17;100520.59;1643720;86;21871;-70
2022/12/08 10:04:27;;;;;;;31.27;17.57;;;;;;;0.40;82.13;100513.16;1625298;84;21157;-70
2022/12/08 10:07:15;;;;;;;32.78;18.48;;;;;;;0.39;82.11;100518.80;1599386;85;21073;-69
2022/12/08 10:10:04;;;;;;;31.27;17.75;;;;;;;0.42;82.14;100519.98;1616517;86;21569;-70
2022/12/08 10:12:45;;;;;;;33.00;17.77;;;;;;;0.44;82.14;100523.83;1634247;86;21081;-70
2022/12/08 10:15:42;;;;;;;34.45;18.85;;;;;;;0.43;82.15;100529.93;1631131;87;21960;-69
2022/12/08 10:18:16;;;;;;;37.50;21.30;;;;;;;0.41;82.10;100530.44;1632887;86;21050;-71
2022/12/08 10:20:46;;;;;;;34.10;18.45;;;;;;;0.40;82.11;100521.80;1607543;86;21088;-71
2022/12/08 10:23:18;;;;;;;37.53;17.80;;;;;;;0.41;82.11;100523.49;1614930;85;21339;-70
2022/12/08 10:26:02;;;;;;;46.23;22.75;;;;;;;0.42;82.15;100527.78;1631424;85;21076;-69
2022/12/08 10:28:32;;;;;;;56.77;25.27;;;;;;;0.44;82.15;100524.67;1599890;86;22598;-71
2022/12/08 10:30:58;;;;;;;54.42;25.97;;;;;;;0.49;82.17;100525.83;1650029;84;21009;-72
2022/12/08 10:33:28;;;;;;;55.48;27.65;;;;;;;0.52;82.19;100523.11;1617836;87;21085;-70
2022/12/08 10:36:01;;;;;;;43.83;22.90;;;;;;;0.52;82.07;100534.34;1605503;86;21004;-69
2022/12/08 10:38:32;;;;;;;25.62;14.45;;;;;;;0.49;82.02;100531.02;1618467;86;21507;-69
2022/12/08 10:41:13;;;;;;;21.82;11.80;;;;;;;0.48;82.02;100527.58;1619076;86;21951;-71
2022/12/08 10:43:53;;;;;;;15.65;9.28;;;;;;;0.46;82.02;100531.95;1622025;86;21084;-71
2022/12/08 10:46:21;;;;;;;21.00;11.03;;;;;;;0.49;82.06;100527.12;1625300;86;21062;-72
2022/12/08 10:49:04;;;;;;;61.05;27.17;;;;;;;0.51;82.08;100522.27;1632899;86;21010;-73
2022/12/08 10:51:40;;;;;;;51.43;24.03;;;;;;;0.52;82.03;100516.61;1635968;86;21502;-74
2022/12/08 10:54:28;;;;;;;58.60;26.60;;;;;;;0.51;82.03;100510.56;1636847;86;22613;-72
2022/12/08 10:56:56;;;;;;;56.60;26.17;;;;;;;0.50;82.00;100510.17;1637289;86;21109;-74
2022/12/08 10:59:25;;;;;;;29.65;13.40;;;;;;;0.53;82.03;100511.35;1606625;87;22183;-73
2022/12/08 11:01:55;;;;;;;17.42;9.28;;;;;;;0.53;82.03;100507.45;1617796;86;21006;-71
2022/12/08 11:04:25;;;;;;;15.55;9.15;;;;;;;0.52;82.00;100503.16;1614330;86;21121;-73
2022/12/08 11:06:52;;;;;;;25.02;14.28;;;;;;;0.54;82.00;100504.41;1629519;86;21877;-71
2022/12/08 11:09:47;;;;;;;38.23;22.02;;;;;;;0.57;81.99;100504.28;1631982;86;21032;-71
2022/12/08 11:12:16;;;;;;;49.10;24.98;;;;;;;0.57;81.97;100504.28;1644588;84;21026;-73
2022/12/08 11:14:48;;;;;;;39.83;22.55;;;;;;;0.55;81.98;100513.44;1639174;85;21081;-70
2022/12/08 13:29:02;;;;;;;206.15;58.33;;;;;;;0.72;81.53;100493.34;1667667;84;21096;-69
2022/12/08 13:31:45;;;;;;;219.03;57.17;;;;;;;0.73;81.53;100495.48;1648011;85;21019;-68
2022/12/08 13:34:50;;;;;;;240.70;61.63;;;;;;;0.71;81.52;100491.64;1666421;86;21402;-68
2022/12/08 13:37:34;;;;;;;221.22;60.20;;;;;;;0.71;81.50;100498.14;1673032;85;21237;-68
2022/12/08 13:40:12;;;;;;;214.48;58.45;;;;;;;0.72;81.51;100495.09;1667215;85;22106;-69
2022/12/08 13:42:50;;;;;;;182.90;51.77;;;;;;;0.72;81.49;100497.23;1661822;85;21443;-68
2022/12/08 13:45:21;;;;;;;171.87;49.83;;;;;;;0.74;81.56;100503.22;1675012;85;21551;-68
2022/12/08 13:48:14;;;;;;;196.02;52.38;;;;;;;0.74;81.47;100504.52;1638532;86;21505;-68
2022/12/08 13:50:45;;;;;;;170.07;48.33;;;;;;;0.72;81.40;100497.69;1635772;86;21025;-68
2022/12/08 13:53:32;;;;;;;153.30;44.18;;;;;;;0.67;81.34;100499.14;1667710;84;21770;-68
2022/12/08 13:55:59;;;;;;;131.40;38.88;;;;;;;0.65;81.31;100505.31;1633819;87;21599;-68
2022/12/08 13:58:34;;;;;;;104.07;35.85;;;;;;;0.63;81.30;100506.67;1658851;86;21512;-68
2022/12/08 14:01:16;;;;;;;133.30;39.98;;;;;;;0.62;81.31;100511.93;1602465;86;21042;-68
2022/12/08 14:03:57;;;;;;;129.07;39.90;;;;;;;0.60;81.30;100513.29;1622761;86;21084;-68
2022/12/08 14:06:36;;;;;;;134.60;41.35;;;;;;;0.56;81.28;100509.94;1646312;85;21688;-67
2022/12/08 14:09:06;;;;;;;130.60;41.13;;;;;;;0.51;81.28;100502.77;1654487;86;21025;-68
2022/12/08 14:11:39;;;;;;;89.65;31.62;;;;;;;0.52;81.36;100500.56;1661488;83;21468;-67
2022/12/08 14:14:10;;;;;;;61.88;22.13;;;;;;;0.53;81.42;100498.36;1665674;85;21425;-67
2022/12/08 14:16:42;;;;;;;83.92;28.38;;;;;;;0.53;81.42;100500.95;1670905;84;21434;-68
2022/12/08 14:19:21;;;;;;;83.50;28.95;;;;;;;0.54;81.44;100509.15;1678686;83;21924;-68
2022/12/08 14:22:14;;;;;;;80.60;25.08;;;;;;;0.55;81.45;100506.09;1586685;88;20986;-68
2022/12/08 14:24:46;;;;;;;77.00;30.05;;;;;;;0.57;81.50;100501.23;1601062;89;21159;-68
2022/12/08 14:27:16;;;;;;;74.47;27.85;;;;;;;0.59;81.49;100497.75;1618025;87;20989;-68
2022/12/08 14:29:49;;;;;;;89.25;36.45;;;;;;;0.62;81.57;100498.94;1637191;86;36259;-68
2022/12/08 14:32:24;;;;;;;143.68;89.50;;;;;;;0.64;81.59;100503.62;1656483;85;21968;-68
2022/12/08 14:35:02;;;;;;;216.15;135.43;;;;;;;0.67;81.61;100503.05;1669781;85;21033;-69
2022/12/08 14:37:31;;;;;;;80.35;53.10;;;;;;;0.70;81.59;100499.50;1668375;84;21426;-68
2022/12/08 14:40:18;;;;;;;170.00;126.62;;;;;;;0.70;81.55;100506.00;1628639;86;21019;-69
2022/12/08 14:42:49;;;;;;;208.68;168.80;;;;;;;0.70;81.56;100506.00;1674725;84;20986;-68
2022/12/08 14:45:16;;;;;;;80.75;66.07;;;;;;;0.69;81.58;100506.91;1676739;84;21911;-69
2022/12/08 14:47:44;;;;;;;42.45;23.77;;;;;;;0.68;81.56;100503.47;1705209;83;21115;-68
2022/12/08 14:50:38;;;;;;;19.05;13.80;;;;;;;0.68;81.59;100498.27;1698719;84;21464;-69
2022/12/08 14:53:12;;;;;;;15.35;11.60;;;;;;;0.69;81.62;100509.52;1673848;83;21460;-69
2022/12/08 14:55:40;;;;;;;15.45;9.08;;;;;;;0.69;81.62;100506.91;1673082;84;21022;-69
2022/12/08 14:58:06;;;;;;;11.78;9.10;;;;;;;0.67;81.58;100512.59;1670797;85;21978;-68
2022/12/08 15:00:32;;;;;;;23.05;10.38;;;;;;;0.67;81.63;100508.70;1671702;84;21120;-69
2022/12/08 15:03:04;;;;;;;19.48;9.40;;;;;;;0.68;81.69;100509.97;1667947;84;21044;-69
2022/12/08 15:05:31;;;;;;;19.75;9.18;;;;;;;0.69;81.69;100505.16;1657832;85;21059;-69
2022/12/08 15:08:01;;;;;;;15.23;9.50;;;;;;;0.68;81.64;100513.02;1688151;84;21035;-69
2022/12/08 15:10:30;;;;;;;26.33;10.03;;;;;;;0.65;81.65;100511.81;1687914;84;22138;-69
2022/12/08 15:13:04;;;;;;;37.30;19.82;;;;;;;0.63;81.64;100515.77;1677550;84;21121;-68
2022/12/08 15:15:33;;;;;;;25.08;14.13;;;;;;;0.62;81.66;100513.23;1671823;84;21116;-69
2022/12/08 15:18:36;;;;;;;17.98;11.97;;;;;;;0.60;81.64;100510.69;1662834;83;21122;-69
2022/12/08 15:21:07;;;;;;;17.85;11.48;;;;;;;0.61;81.65;100511.08;1661133;83;21405;-69
2022/12/08 15:23:43;;;;;;;16.73;9.53;;;;;;;0.63;81.74;100513.62;1667517;84;21857;-68
2022/12/08 15:26:26;;;;;;;12.43;8.28;;;;;;;0.64;81.80;100504.92;1669955;85;21069;-69
2022/12/08 15:28:52;;;;;;;13.40;8.28;;;;;;;0.64;81.85;100505.77;1698809;83;20977;-68
2022/12/08 15:31:19;;;;;;;17.65;9.93;;;;;;;0.67;81.87;100498.30;1684918;83;21085;-69
2022/12/08 15:33:45;;;;;;;16.87;9.90;;;;;;;0.70;81.90;100499.50;1674473;84;21007;-69
2022/12/08 15:36:12;;;;;;;17.42;11.15;;;;;;;0.71;81.90;100498.59;1669263;85;21790;-69
2022/12/08 15:38:38;;;;;;;25.23;14.75;;;;;;;0.73;81.92;100500.68;1673229;85;21058;-69
2022/12/08 15:41:05;;;;;;;30.75;18.15;;;;;;;0.75;81.93;100504.06;1622633;85;21002;-70
2022/12/08 15:43:32;;;;;;;25.60;12.70;;;;;;;0.76;81.90;100500.11;1636296;87;21022;-70
2022/12/08 15:45:59;;;;;;;20.95;12.18;;;;;;;0.76;81.86;100497.50;1628642;86;21127;-69
2022/12/08 15:48:28;;;;;;;22.10;11.88;;;;;;;0.77;81.89;100500.53;1597320;87;21983;-69
2022/12/08 15:50:55;;;;;;;27.27;13.25;;;;;;;0.79;81.88;100502.61;1670817;84;21016;-69
2022/12/08 15:53:21;;;;;;;31.97;13.28;;;;;;;0.78;81.84;100505.28;1680506;84;20984;-69
2022/12/08 15:55:48;;;;;;;23.98;13.15;;;;;;;0.80;81.87;100513.86;1677648;83;21044;-69
2022/12/08 15:58:23;;;;;;;24.82;12.28;;;;;;;0.81;81.89;100516.40;1641076;85;20986;-69
2022/12/08 16:00:53;;;;;;;26.73;17.30;;;;;;;0.83;81.90;100512.44;1638629;84;22532;-70
2022/12/08 16:03:28;;;;;;;26.00;14.58;;;;;;;0.85;81.89;100508.86;1652976;86;21053;-69
2022/12/08 16:05:56;;;;;;;25.15;13.10;;;;;;;0.85;81.89;100512.77;1639040;86;20907;-69
2022/12/08 16:08:23;;;;;;;22.32;11.15;;;;;;;0.85;81.89;100514.52;1626641;86;21012;-69
2022/12/08 16:10:49;;;;;;;18.10;12.60;;;;;;;0.85;81.93;100519.72;1611180;86;20969;-73
2022/12/08 16:16:06;;;;;;;33.45;12.65;;;;;;;0.85;81.99;100516.66;1610799;87;20902;-69
2022/12/08 16:18:35;;;;;;;31.50;11.80;;;;;;;0.87;82.03;100515.34;1641683;86;20997;-69
2022/12/08 16:21:02;;;;;;;26.00;12.35;;;;;;;0.88;82.05;100520.92;1673198;83;21001;-69
2022/12/08 16:23:28;;;;;;;27.90;11.68;;;;;;;0.91;82.07;100514.30;1664093;83;20961;-69
2022/12/08 16:25:55;;;;;;;25.97;12.60;;;;;;;0.94;82.10;100517.23;1664238;85;21901;-69
2022/12/08 16:28:21;;;;;;;32.17;13.58;;;;;;;0.96;82.12;100521.92;1657119;84;21013;-69
2022/12/08 16:30:48;;;;;;;36.10;14.83;;;;;;;0.97;82.17;100518.44;1662575;85;21051;-69
2022/12/08 16:33:14;;;;;;;32.25;15.15;;;;;;;0.99;82.14;100520.52;1673808;83;20991;-69
2022/12/08 16:35:41;;;;;;;31.20;14.85;;;;;;;1.00;82.14;100519.62;1623003;87;21056;-70
2022/12/08 16:38:14;;;;;;;36.42;15.30;;;;;;;1.01;82.17;100510.45;1656284;84;21945;-70
2022/12/08 16:43:32;;;;;;;24.18;14.47;;;;;;;1.04;82.15;100500.38;1665817;83;21044;-70
2022/12/08 16:46:00;;;;;;;25.27;14.98;;;;;;;1.04;82.16;100496.47;1613310;85;21102;-70
2022/12/08 16:48:27;;;;;;;36.63;14.65;;;;;;;1.04;82.19;100493.88;1622254;86;21107;-73
2022/12/08 16:50:53;;;;;;;22.82;13.13;;;;;;;1.02;82.22;100491.79;1630080;86;22639;-75
2022/12/08 16:53:20;;;;;;;33.00;15.58;;;;;;;1.01;82.23;100488.34;1639048;85;21021;-69
2022/12/08 16:55:47;;;;;;;28.42;14.98;;;;;;;1.00;82.23;100497.05;1628738;86;20961;-70
2022/12/08 16:58:14;;;;;;;35.13;15.45;;;;;;;0.99;82.26;100499.27;1664352;84;21043;-72
2022/12/08 17:00:41;;;;;;;30.82;14.95;;;;;;;0.99;82.27;100495.36;1681399;83;21084;-70
2022/12/08 17:03:08;;;;;;;37.10;14.63;;;;;;;1.00;82.25;100502.70;1619657;87;21873;-71
2022/12/08 17:05:34;;;;;;;45.33;15.20;;;;;;;1.01;82.24;100495.30;1665683;84;21063;-71
2022/12/08 17:08:01;;;;;;;34.50;15.08;;;;;;;1.01;82.27;100501.80;1675279;83;21036;-70
2022/12/08 19:24:37;;;;;;;34.90;12.95;;;;;;;0.98;83.27;100446.86;1531039;91;21832;-67
2022/12/08 19:27:04;;;;;;;72.67;14.03;;;;;;;0.97;83.25;100450.37;1558854;88;21135;-67
2022/12/08 19:29:32;;;;;;;36.58;13.93;;;;;;;0.98;83.26;100449.91;1585810;88;21092;-68
2022/12/08 19:31:59;;;;;;;50.85;19.35;;;;;;;0.98;83.21;100441.66;1533877;91;21107;-68
2022/12/08 19:34:27;;;;;;;64.45;16.23;;;;;;;0.98;83.19;100449.45;1583739;88;21151;-69
2022/12/08 19:36:53;;;;;;;58.75;16.77;;;;;;;0.99;83.20;100447.70;1581084;88;21948;-70
2022/12/08 19:45:10;;;;;;;59.23;19.77;;;;;;;1.00;83.25;100434.63;1612764;87;21085;-70
2022/12/08 19:47:37;;;;;;;66.10;27.48;;;;;;;1.00;83.25;100435.94;1609821;87;21048;-71
2022/12/08 19:52:51;;;;;;;45.40;15.32;;;;;;;1.01;83.28;100432.42;1587139;88;21115;-70
2022/12/08 19:55:17;;;;;;;79.32;14.68;;;;;;;0.97;83.21;100428.27;1593751;87;21077;-70
2022/12/08 19:57:44;;;;;;;75.05;13.58;;;;;;;0.97;83.25;100428.27;1560201;89;21033;-70
2022/12/08 20:00:12;;;;;;;87.92;15.83;;;;;;;0.95;83.27;100433.95;1543755;90;21092;-69
2022/12/08 20:02:38;;;;;;;82.30;13.83;;;;;;;0.95;83.27;100431.80;1578772;89;21743;-68
2022/12/08 20:05:05;;;;;;;54.73;14.13;;;;;;;0.97;83.27;100440.42;1545280;90;21184;-68
2022/12/08 20:07:32;;;;;;;61.77;14.63;;;;;;;0.95;83.22;100435.70;1583123;88;21066;-68